sensor_id;sensor_type;location;lat;lon;timestamp;temperature;humidity
41058;DHT22;66768;48.884;2.258;2023-02-28T00:01:33;4.60;92.30
41058;DHT22;66768;48.884;2.258;2023-02-28T00:04:00;4.60;92.30
41058;DHT22;66768;48.884;2.258;2023-02-28T00:06:30;4.60;92.40
41058;DHT22;66768;48.884;2.258;2023-02-28T00:08:58;4.60;92.40
41058;DHT22;66768;48.884;2.258;2023-02-28T00:11:25;4.50;92.30
41058;DHT22;66768;48.884;2.258;2023-02-28T00:13:52;4.80;92.50
41058;DHT22;66768;48.884;2.258;2023-02-28T00:16:20;4.60;92.40
41058;DHT22;66768;48.884;2.258;2023-02-28T00:18:48;4.60;92.40
41058;DHT22;66768;48.884;2.258;2023-02-28T00:21:16;4.60;92.50
41058;DHT22;66768;48.884;2.258;2023-02-28T00:23:43;4.50;92.40
41058;DHT22;66768;48.884;2.258;2023-02-28T00:26:12;4.50;92.50
41058;DHT22;66768;48.884;2.258;2023-02-28T00:28:38;4.50;92.50
41058;DHT22;66768;48.884;2.258;2023-02-28T00:31:05;4.40;92.40
41058;DHT22;66768;48.884;2.258;2023-02-28T00:33:32;4.40;92.50
41058;DHT22;66768;48.884;2.258;2023-02-28T00:36:04;4.40;92.60
41058;DHT22;66768;48.884;2.258;2023-02-28T00:38:31;4.40;92.70
41058;DHT22;66768;48.884;2.258;2023-02-28T00:40:58;4.40;92.60
41058;DHT22;66768;48.884;2.258;2023-02-28T00:43:32;4.30;92.70
41058;DHT22;66768;48.884;2.258;2023-02-28T00:45:59;4.30;92.70
41058;DHT22;66768;48.884;2.258;2023-02-28T00:48:26;4.30;92.60
41058;DHT22;66768;48.884;2.258;2023-02-28T00:50:53;4.30;92.60
41058;DHT22;66768;48.884;2.258;2023-02-28T00:53:20;4.30;92.50
41058;DHT22;66768;48.884;2.258;2023-02-28T00:55:48;4.30;92.50
41058;DHT22;66768;48.884;2.258;2023-02-28T00:58:15;4.40;92.60
41058;DHT22;66768;48.884;2.258;2023-02-28T01:00:43;4.30;92.50
41058;DHT22;66768;48.884;2.258;2023-02-28T01:03:14;4.30;92.50
41058;DHT22;66768;48.884;2.258;2023-02-28T01:05:41;4.30;92.60
41058;DHT22;66768;48.884;2.258;2023-02-28T01:08:08;4.20;92.60
41058;DHT22;66768;48.884;2.258;2023-02-28T01:10:35;4.20;92.60
41058;DHT22;66768;48.884;2.258;2023-02-28T01:13:04;4.20;92.50
41058;DHT22;66768;48.884;2.258;2023-02-28T01:15:31;4.20;92.60
41058;DHT22;66768;48.884;2.258;2023-02-28T01:17:59;4.10;92.60
41058;DHT22;66768;48.884;2.258;2023-02-28T01:20:27;4.10;92.60
41058;DHT22;66768;48.884;2.258;2023-02-28T01:22:53;4.20;92.60
41058;DHT22;66768;48.884;2.258;2023-02-28T01:25:21;4.20;92.50
41058;DHT22;66768;48.884;2.258;2023-02-28T01:27:47;4.10;92.70
41058;DHT22;66768;48.884;2.258;2023-02-28T01:30:15;4.10;92.50
41058;DHT22;66768;48.884;2.258;2023-02-28T01:32:42;4.10;92.60
41058;DHT22;66768;48.884;2.258;2023-02-28T01:35:10;4.10;92.70
41058;DHT22;66768;48.884;2.258;2023-02-28T01:37:37;4.00;92.40
41058;DHT22;66768;48.884;2.258;2023-02-28T01:40:05;4.00;92.60
41058;DHT22;66768;48.884;2.258;2023-02-28T01:42:32;4.00;92.10
41058;DHT22;66768;48.884;2.258;2023-02-28T01:45:18;4.10;92.20
41058;DHT22;66768;48.884;2.258;2023-02-28T01:47:48;4.10;92.00
41058;DHT22;66768;48.884;2.258;2023-02-28T01:50:21;4.10;92.10
41058;DHT22;66768;48.884;2.258;2023-02-28T01:52:50;4.00;92.20
41058;DHT22;66768;48.884;2.258;2023-02-28T01:55:19;4.10;92.10
41058;DHT22;66768;48.884;2.258;2023-02-28T01:57:49;4.00;92.20
41058;DHT22;66768;48.884;2.258;2023-02-28T02:00:20;4.00;92.30
41058;DHT22;66768;48.884;2.258;2023-02-28T02:02:50;4.00;92.30
41058;DHT22;66768;48.884;2.258;2023-02-28T02:05:21;4.00;92.40
41058;DHT22;66768;48.884;2.258;2023-02-28T02:07:50;3.90;92.40
41058;DHT22;66768;48.884;2.258;2023-02-28T02:10:21;3.90;92.40
41058;DHT22;66768;48.884;2.258;2023-02-28T02:13:01;3.80;92.50
41058;DHT22;66768;48.884;2.258;2023-02-28T02:15:34;3.90;92.50
41058;DHT22;66768;48.884;2.258;2023-02-28T02:18:09;3.90;92.30
41058;DHT22;66768;48.884;2.258;2023-02-28T02:26:48;3.90;92.10
41058;DHT22;66768;48.884;2.258;2023-02-28T02:29:40;3.80;92.10
41058;DHT22;66768;48.884;2.258;2023-02-28T02:32:44;3.90;92.10
41058;DHT22;66768;48.884;2.258;2023-02-28T02:35:15;3.90;92.00
41058;DHT22;66768;48.884;2.258;2023-02-28T02:37:48;3.90;91.80
41058;DHT22;66768;48.884;2.258;2023-02-28T02:40:20;3.90;91.80
41058;DHT22;66768;48.884;2.258;2023-02-28T02:42:51;3.90;91.90
41058;DHT22;66768;48.884;2.258;2023-02-28T02:45:25;3.80;91.90
41058;DHT22;66768;48.884;2.258;2023-02-28T02:47:56;3.80;91.80
41058;DHT22;66768;48.884;2.258;2023-02-28T02:50:33;3.80;92.00
41058;DHT22;66768;48.884;2.258;2023-02-28T02:53:03;3.70;91.90
41058;DHT22;66768;48.884;2.258;2023-02-28T02:55:34;3.80;91.80
41058;DHT22;66768;48.884;2.258;2023-02-28T02:58:04;3.70;91.80
41058;DHT22;66768;48.884;2.258;2023-02-28T03:00:34;3.70;91.80
41058;DHT22;66768;48.884;2.258;2023-02-28T03:03:03;3.70;91.90
41058;DHT22;66768;48.884;2.258;2023-02-28T03:05:35;3.70;91.70
41058;DHT22;66768;48.884;2.258;2023-02-28T03:08:06;3.60;91.70
41058;DHT22;66768;48.884;2.258;2023-02-28T03:10:36;3.70;91.70
41058;DHT22;66768;48.884;2.258;2023-02-28T03:19:18;3.70;91.60
41058;DHT22;66768;48.884;2.258;2023-02-28T03:22:01;3.60;91.50
41058;DHT22;66768;48.884;2.258;2023-02-28T03:24:34;3.60;91.90
41058;DHT22;66768;48.884;2.258;2023-02-28T03:27:08;3.60;91.60
41058;DHT22;66768;48.884;2.258;2023-02-28T03:29:39;3.70;91.50
41058;DHT22;66768;48.884;2.258;2023-02-28T03:32:13;3.70;91.40
41058;DHT22;66768;48.884;2.258;2023-02-28T03:34:50;3.70;91.40
41058;DHT22;66768;48.884;2.258;2023-02-28T03:37:23;3.60;91.20
41058;DHT22;66768;48.884;2.258;2023-02-28T03:39:55;3.60;91.30
41058;DHT22;66768;48.884;2.258;2023-02-28T03:42:26;3.60;91.30
41058;DHT22;66768;48.884;2.258;2023-02-28T03:44:56;3.60;91.40
41058;DHT22;66768;48.884;2.258;2023-02-28T03:47:28;3.50;91.30
41058;DHT22;66768;48.884;2.258;2023-02-28T03:49:59;3.50;91.30
41058;DHT22;66768;48.884;2.258;2023-02-28T03:52:31;3.50;91.50
41058;DHT22;66768;48.884;2.258;2023-02-28T03:55:01;3.50;91.50
41058;DHT22;66768;48.884;2.258;2023-02-28T03:57:35;3.50;91.40
41058;DHT22;66768;48.884;2.258;2023-02-28T04:00:07;3.40;91.30
41058;DHT22;66768;48.884;2.258;2023-02-28T04:02:35;3.50;91.30
41058;DHT22;66768;48.884;2.258;2023-02-28T04:05:02;3.50;91.50
41058;DHT22;66768;48.884;2.258;2023-02-28T04:07:31;3.60;91.30
41058;DHT22;66768;48.884;2.258;2023-02-28T04:09:59;3.50;91.20
41058;DHT22;66768;48.884;2.258;2023-02-28T04:12:26;3.50;91.30
41058;DHT22;66768;48.884;2.258;2023-02-28T04:14:52;3.50;91.20
41058;DHT22;66768;48.884;2.258;2023-02-28T04:17:19;3.60;91.30
41058;DHT22;66768;48.884;2.258;2023-02-28T04:19:46;3.50;91.50
41058;DHT22;66768;48.884;2.258;2023-02-28T04:22:13;3.50;91.30
41058;DHT22;66768;48.884;2.258;2023-02-28T04:24:42;3.50;91.20
41058;DHT22;66768;48.884;2.258;2023-02-28T04:27:09;3.50;91.30
41058;DHT22;66768;48.884;2.258;2023-02-28T04:29:36;3.40;91.30
41058;DHT22;66768;48.884;2.258;2023-02-28T04:32:03;3.40;91.30
41058;DHT22;66768;48.884;2.258;2023-02-28T04:34:31;3.40;91.20
41058;DHT22;66768;48.884;2.258;2023-02-28T04:36:58;3.40;91.40
41058;DHT22;66768;48.884;2.258;2023-02-28T04:39:26;3.50;91.40
41058;DHT22;66768;48.884;2.258;2023-02-28T04:41:54;3.40;91.30
41058;DHT22;66768;48.884;2.258;2023-02-28T04:44:22;3.40;91.30
41058;DHT22;66768;48.884;2.258;2023-02-28T04:46:49;3.50;91.40
41058;DHT22;66768;48.884;2.258;2023-02-28T04:49:16;3.40;91.40
41058;DHT22;66768;48.884;2.258;2023-02-28T04:51:44;3.40;91.40
41058;DHT22;66768;48.884;2.258;2023-02-28T04:54:11;3.40;91.40
41058;DHT22;66768;48.884;2.258;2023-02-28T04:56:38;3.40;91.40
41058;DHT22;66768;48.884;2.258;2023-02-28T04:59:07;3.50;91.40
41058;DHT22;66768;48.884;2.258;2023-02-28T05:01:34;3.40;91.40
41058;DHT22;66768;48.884;2.258;2023-02-28T05:04:03;3.40;91.50
41058;DHT22;66768;48.884;2.258;2023-02-28T05:06:32;3.40;91.40
41058;DHT22;66768;48.884;2.258;2023-02-28T05:08:59;3.40;91.40
41058;DHT22;66768;48.884;2.258;2023-02-28T05:11:28;3.50;91.50
41058;DHT22;66768;48.884;2.258;2023-02-28T05:14:00;3.50;91.40
41058;DHT22;66768;48.884;2.258;2023-02-28T05:16:29;3.40;91.40
41058;DHT22;66768;48.884;2.258;2023-02-28T05:18:56;3.30;91.30
41058;DHT22;66768;48.884;2.258;2023-02-28T05:21:27;3.30;91.50
41058;DHT22;66768;48.884;2.258;2023-02-28T05:23:55;3.30;91.50
41058;DHT22;66768;48.884;2.258;2023-02-28T05:26:23;3.30;91.50
41058;DHT22;66768;48.884;2.258;2023-02-28T05:28:50;3.30;91.60
41058;DHT22;66768;48.884;2.258;2023-02-28T05:31:17;3.30;91.50
41058;DHT22;66768;48.884;2.258;2023-02-28T05:33:45;3.30;91.50
41058;DHT22;66768;48.884;2.258;2023-02-28T05:36:12;3.30;91.60
41058;DHT22;66768;48.884;2.258;2023-02-28T05:38:39;3.30;91.70
41058;DHT22;66768;48.884;2.258;2023-02-28T05:41:07;3.40;91.80
41058;DHT22;66768;48.884;2.258;2023-02-28T05:43:35;3.30;92.00
41058;DHT22;66768;48.884;2.258;2023-02-28T05:46:03;3.20;92.30
41058;DHT22;66768;48.884;2.258;2023-02-28T05:48:31;3.20;92.70
41058;DHT22;66768;48.884;2.258;2023-02-28T05:50:59;3.10;92.90
41058;DHT22;66768;48.884;2.258;2023-02-28T05:53:27;3.20;93.10
41058;DHT22;66768;48.884;2.258;2023-02-28T05:55:53;3.10;93.20
41058;DHT22;66768;48.884;2.258;2023-02-28T05:58:21;3.10;93.30
41058;DHT22;66768;48.884;2.258;2023-02-28T06:00:48;3.10;93.50
41058;DHT22;66768;48.884;2.258;2023-02-28T06:03:15;3.10;93.70
41058;DHT22;66768;48.884;2.258;2023-02-28T06:05:42;3.10;93.80
41058;DHT22;66768;48.884;2.258;2023-02-28T06:08:10;3.10;93.90
41058;DHT22;66768;48.884;2.258;2023-02-28T06:10:37;3.20;94.00
41058;DHT22;66768;48.884;2.258;2023-02-28T06:13:04;3.00;94.10
41058;DHT22;66768;48.884;2.258;2023-02-28T06:15:32;3.00;94.50
41058;DHT22;66768;48.884;2.258;2023-02-28T06:17:59;2.90;94.60
41058;DHT22;66768;48.884;2.258;2023-02-28T06:20:27;2.90;94.60
41058;DHT22;66768;48.884;2.258;2023-02-28T06:22:55;2.90;94.70
41058;DHT22;66768;48.884;2.258;2023-02-28T06:25:25;2.90;94.70
41058;DHT22;66768;48.884;2.258;2023-02-28T06:27:53;2.90;94.80
41058;DHT22;66768;48.884;2.258;2023-02-28T06:30:21;2.90;94.80
41058;DHT22;66768;48.884;2.258;2023-02-28T06:32:50;2.90;94.80
41058;DHT22;66768;48.884;2.258;2023-02-28T06:35:18;3.00;94.70
41058;DHT22;66768;48.884;2.258;2023-02-28T06:37:45;2.90;94.70
41058;DHT22;66768;48.884;2.258;2023-02-28T06:40:13;3.00;94.70
41058;DHT22;66768;48.884;2.258;2023-02-28T06:42:41;3.00;94.80
41058;DHT22;66768;48.884;2.258;2023-02-28T06:45:09;3.00;94.70
41058;DHT22;66768;48.884;2.258;2023-02-28T06:47:37;3.00;94.90
41058;DHT22;66768;48.884;2.258;2023-02-28T06:50:06;3.00;94.80
41058;DHT22;66768;48.884;2.258;2023-02-28T06:52:33;2.90;94.90
41058;DHT22;66768;48.884;2.258;2023-02-28T06:55:01;2.90;95.10
41058;DHT22;66768;48.884;2.258;2023-02-28T06:57:30;2.90;95.10
41058;DHT22;66768;48.884;2.258;2023-02-28T07:00:13;2.80;95.20
41058;DHT22;66768;48.884;2.258;2023-02-28T07:02:40;2.80;95.20
41058;DHT22;66768;48.884;2.258;2023-02-28T07:05:08;3.00;95.30
41058;DHT22;66768;48.884;2.258;2023-02-28T07:07:35;2.90;95.30
41058;DHT22;66768;48.884;2.258;2023-02-28T07:10:04;2.80;95.40
41058;DHT22;66768;48.884;2.258;2023-02-28T07:12:31;2.80;95.50
41058;DHT22;66768;48.884;2.258;2023-02-28T07:14:58;2.90;95.40
41058;DHT22;66768;48.884;2.258;2023-02-28T07:17:27;2.90;95.50
41058;DHT22;66768;48.884;2.258;2023-02-28T07:19:53;2.90;95.50
41058;DHT22;66768;48.884;2.258;2023-02-28T07:22:20;2.90;95.50
41058;DHT22;66768;48.884;2.258;2023-02-28T07:24:47;2.90;95.30
41058;DHT22;66768;48.884;2.258;2023-02-28T07:27:14;2.90;95.50
41058;DHT22;66768;48.884;2.258;2023-02-28T07:29:49;2.90;95.60
41058;DHT22;66768;48.884;2.258;2023-02-28T07:32:16;3.00;95.60
41058;DHT22;66768;48.884;2.258;2023-02-28T07:34:44;3.10;95.60
41058;DHT22;66768;48.884;2.258;2023-02-28T07:37:11;3.10;95.60
41058;DHT22;66768;48.884;2.258;2023-02-28T07:39:38;3.10;95.70
41058;DHT22;66768;48.884;2.258;2023-02-28T07:42:07;3.20;95.50
41058;DHT22;66768;48.884;2.258;2023-02-28T07:44:37;3.20;95.30
41058;DHT22;66768;48.884;2.258;2023-02-28T07:47:07;3.30;95.10
41058;DHT22;66768;48.884;2.258;2023-02-28T07:49:35;3.30;95.00
41058;DHT22;66768;48.884;2.258;2023-02-28T07:52:04;3.30;95.00
41058;DHT22;66768;48.884;2.258;2023-02-28T07:54:32;3.40;95.20
41058;DHT22;66768;48.884;2.258;2023-02-28T07:56:59;3.40;94.80
41058;DHT22;66768;48.884;2.258;2023-02-28T07:59:26;3.50;94.90
41058;DHT22;66768;48.884;2.258;2023-02-28T08:01:53;3.60;95.10
41058;DHT22;66768;48.884;2.258;2023-02-28T08:04:20;3.50;94.60
41058;DHT22;66768;48.884;2.258;2023-02-28T08:06:47;3.60;94.70
41058;DHT22;66768;48.884;2.258;2023-02-28T08:09:15;3.60;94.80
41058;DHT22;66768;48.884;2.258;2023-02-28T08:11:42;3.60;94.50
41058;DHT22;66768;48.884;2.258;2023-02-28T08:14:09;3.50;94.40
41058;DHT22;66768;48.884;2.258;2023-02-28T08:16:36;3.50;94.40
41058;DHT22;66768;48.884;2.258;2023-02-28T08:19:04;3.50;94.40
41058;DHT22;66768;48.884;2.258;2023-02-28T08:21:31;3.50;94.50
41058;DHT22;66768;48.884;2.258;2023-02-28T08:23:58;3.60;94.40
41058;DHT22;66768;48.884;2.258;2023-02-28T08:26:27;3.60;94.30
41058;DHT22;66768;48.884;2.258;2023-02-28T08:28:54;3.60;94.30
41058;DHT22;66768;48.884;2.258;2023-02-28T08:31:20;3.60;94.40
41058;DHT22;66768;48.884;2.258;2023-02-28T08:33:48;3.50;94.50
41058;DHT22;66768;48.884;2.258;2023-02-28T08:36:17;3.60;94.40
41058;DHT22;66768;48.884;2.258;2023-02-28T08:38:45;3.60;94.50
41058;DHT22;66768;48.884;2.258;2023-02-28T08:41:12;3.60;94.40
41058;DHT22;66768;48.884;2.258;2023-02-28T08:43:41;3.70;94.50
41058;DHT22;66768;48.884;2.258;2023-02-28T08:46:11;3.60;94.30
41058;DHT22;66768;48.884;2.258;2023-02-28T08:48:39;3.60;94.40
41058;DHT22;66768;48.884;2.258;2023-02-28T08:51:08;3.70;94.40
41058;DHT22;66768;48.884;2.258;2023-02-28T08:53:36;3.60;94.30
41058;DHT22;66768;48.884;2.258;2023-02-28T08:56:06;3.70;94.30
41058;DHT22;66768;48.884;2.258;2023-02-28T08:58:33;3.70;94.30
41058;DHT22;66768;48.884;2.258;2023-02-28T09:01:07;3.70;94.10
41058;DHT22;66768;48.884;2.258;2023-02-28T09:03:36;3.70;94.10
41058;DHT22;66768;48.884;2.258;2023-02-28T09:06:03;3.70;94.00
41058;DHT22;66768;48.884;2.258;2023-02-28T09:08:31;3.80;93.90
41058;DHT22;66768;48.884;2.258;2023-02-28T09:10:58;3.80;93.70
41058;DHT22;66768;48.884;2.258;2023-02-28T09:13:26;3.70;93.60
41058;DHT22;66768;48.884;2.258;2023-02-28T09:15:53;4.00;93.80
41058;DHT22;66768;48.884;2.258;2023-02-28T09:18:21;3.90;93.70
41058;DHT22;66768;48.884;2.258;2023-02-28T09:20:48;3.90;93.50
41058;DHT22;66768;48.884;2.258;2023-02-28T09:23:16;4.00;93.30
41058;DHT22;66768;48.884;2.258;2023-02-28T09:25:47;4.10;93.30
41058;DHT22;66768;48.884;2.258;2023-02-28T09:28:15;4.10;93.10
41058;DHT22;66768;48.884;2.258;2023-02-28T09:30:42;4.20;93.00
41058;DHT22;66768;48.884;2.258;2023-02-28T09:33:10;4.60;93.00
41058;DHT22;66768;48.884;2.258;2023-02-28T09:35:39;4.20;92.90
41058;DHT22;66768;48.884;2.258;2023-02-28T09:38:06;4.30;92.90
41058;DHT22;66768;48.884;2.258;2023-02-28T09:40:36;4.40;92.60
41058;DHT22;66768;48.884;2.258;2023-02-28T09:43:05;4.40;92.60
41058;DHT22;66768;48.884;2.258;2023-02-28T09:45:36;4.60;92.60
41058;DHT22;66768;48.884;2.258;2023-02-28T09:48:09;4.40;92.20
41058;DHT22;66768;48.884;2.258;2023-02-28T09:50:41;4.30;92.20
41058;DHT22;66768;48.884;2.258;2023-02-28T09:53:18;4.40;92.40
41058;DHT22;66768;48.884;2.258;2023-02-28T09:55:49;4.40;92.20
41058;DHT22;66768;48.884;2.258;2023-02-28T09:58:22;4.50;92.10
41058;DHT22;66768;48.884;2.258;2023-02-28T10:00:57;4.60;92.10
41058;DHT22;66768;48.884;2.258;2023-02-28T10:03:30;4.60;92.10
41058;DHT22;66768;48.884;2.258;2023-02-28T10:06:07;4.60;91.60
41058;DHT22;66768;48.884;2.258;2023-02-28T10:08:39;4.50;91.60
41058;DHT22;66768;48.884;2.258;2023-02-28T10:11:12;4.50;91.40
41058;DHT22;66768;48.884;2.258;2023-02-28T10:13:52;4.60;91.70
41058;DHT22;66768;48.884;2.258;2023-02-28T10:16:27;4.60;91.50
41058;DHT22;66768;48.884;2.258;2023-02-28T10:18:57;4.60;91.60
41058;DHT22;66768;48.884;2.258;2023-02-28T10:21:32;4.80;91.50
41058;DHT22;66768;48.884;2.258;2023-02-28T10:24:04;4.70;91.60
41058;DHT22;66768;48.884;2.258;2023-02-28T10:26:32;4.80;91.70
41058;DHT22;66768;48.884;2.258;2023-02-28T10:29:00;4.80;91.90
41058;DHT22;66768;48.884;2.258;2023-02-28T10:31:28;4.90;92.00
41058;DHT22;66768;48.884;2.258;2023-02-28T10:33:56;5.00;92.00
41058;DHT22;66768;48.884;2.258;2023-02-28T10:36:23;5.00;91.80
41058;DHT22;66768;48.884;2.258;2023-02-28T10:38:51;5.10;91.70
41058;DHT22;66768;48.884;2.258;2023-02-28T10:41:27;5.00;91.40
41058;DHT22;66768;48.884;2.258;2023-02-28T10:44:13;5.20;91.20
41058;DHT22;66768;48.884;2.258;2023-02-28T10:46:41;5.10;90.80
41058;DHT22;66768;48.884;2.258;2023-02-28T10:49:14;5.10;90.40
41058;DHT22;66768;48.884;2.258;2023-02-28T10:51:42;5.00;89.00
41058;DHT22;66768;48.884;2.258;2023-02-28T10:54:23;5.00;89.60
41058;DHT22;66768;48.884;2.258;2023-02-28T10:57:21;5.50;89.00
41058;DHT22;66768;48.884;2.258;2023-02-28T10:59:51;5.20;89.00
41058;DHT22;66768;48.884;2.258;2023-02-28T11:02:32;5.20;88.80
41058;DHT22;66768;48.884;2.258;2023-02-28T11:04:59;5.30;89.20
41058;DHT22;66768;48.884;2.258;2023-02-28T11:07:26;5.50;87.20
41058;DHT22;66768;48.884;2.258;2023-02-28T11:09:57;5.40;85.00
41058;DHT22;66768;48.884;2.258;2023-02-28T11:12:27;5.40;83.80
41058;DHT22;66768;48.884;2.258;2023-02-28T11:14:57;5.70;85.20
41058;DHT22;66768;48.884;2.258;2023-02-28T11:17:27;5.40;84.40
41058;DHT22;66768;48.884;2.258;2023-02-28T11:19:57;5.50;83.30
41058;DHT22;66768;48.884;2.258;2023-02-28T11:22:27;5.50;82.90
41058;DHT22;66768;48.884;2.258;2023-02-28T11:24:57;5.60;82.60
41058;DHT22;66768;48.884;2.258;2023-02-28T11:30:31;5.70;81.20
41058;DHT22;66768;48.884;2.258;2023-02-28T11:32:59;5.60;81.30
41058;DHT22;66768;48.884;2.258;2023-02-28T11:35:29;5.80;80.40
41058;DHT22;66768;48.884;2.258;2023-02-28T11:37:57;5.70;79.90
41058;DHT22;66768;48.884;2.258;2023-02-28T11:40:31;5.60;79.70
41058;DHT22;66768;48.884;2.258;2023-02-28T11:43:07;5.70;81.70
41058;DHT22;66768;48.884;2.258;2023-02-28T11:45:45;5.60;80.40
41058;DHT22;66768;48.884;2.258;2023-02-28T11:48:21;5.50;79.20
41058;DHT22;66768;48.884;2.258;2023-02-28T11:50:58;5.80;80.40
41058;DHT22;66768;48.884;2.258;2023-02-28T11:53:39;5.90;78.70
41058;DHT22;66768;48.884;2.258;2023-02-28T11:56:17;5.70;79.20
41058;DHT22;66768;48.884;2.258;2023-02-28T11:58:54;5.90;80.70
41058;DHT22;66768;48.884;2.258;2023-02-28T12:01:36;5.90;80.90
41058;DHT22;66768;48.884;2.258;2023-02-28T12:04:16;6.20;82.10
41058;DHT22;66768;48.884;2.258;2023-02-28T12:06:47;6.00;81.90
41058;DHT22;66768;48.884;2.258;2023-02-28T12:09:35;6.00;81.20
41058;DHT22;66768;48.884;2.258;2023-02-28T12:12:15;6.00;81.20
41058;DHT22;66768;48.884;2.258;2023-02-28T12:17:54;6.20;81.00
41058;DHT22;66768;48.884;2.258;2023-02-28T12:20:30;6.10;81.20
41058;DHT22;66768;48.884;2.258;2023-02-28T12:23:11;6.00;80.20
41058;DHT22;66768;48.884;2.258;2023-02-28T12:25:55;6.30;80.90
41058;DHT22;66768;48.884;2.258;2023-02-28T12:28:31;6.00;80.40
41058;DHT22;66768;48.884;2.258;2023-02-28T12:31:03;6.10;80.00
41058;DHT22;66768;48.884;2.258;2023-02-28T12:33:34;6.00;79.60
41058;DHT22;66768;48.884;2.258;2023-02-28T12:36:07;6.10;80.10
41058;DHT22;66768;48.884;2.258;2023-02-28T12:38:41;6.00;79.90
41058;DHT22;66768;48.884;2.258;2023-02-28T12:41:13;6.00;79.00
41058;DHT22;66768;48.884;2.258;2023-02-28T12:43:44;6.30;80.20
41058;DHT22;66768;48.884;2.258;2023-02-28T12:46:15;6.10;79.70
41058;DHT22;66768;48.884;2.258;2023-02-28T12:48:47;6.10;78.70
41058;DHT22;66768;48.884;2.258;2023-02-28T12:51:16;6.10;78.10
41058;DHT22;66768;48.884;2.258;2023-02-28T12:53:59;6.10;78.10
41058;DHT22;66768;48.884;2.258;2023-02-28T12:56:36;6.20;78.10
41058;DHT22;66768;48.884;2.258;2023-02-28T12:59:17;6.40;78.10
41058;DHT22;66768;48.884;2.258;2023-02-28T13:05:26;6.00;78.50
41058;DHT22;66768;48.884;2.258;2023-02-28T13:08:20;6.00;78.70
41058;DHT22;66768;48.884;2.258;2023-02-28T13:10:51;6.00;79.00
41058;DHT22;66768;48.884;2.258;2023-02-28T13:13:22;6.00;78.90
41058;DHT22;66768;48.884;2.258;2023-02-28T13:16:06;5.90;78.70
41058;DHT22;66768;48.884;2.258;2023-02-28T13:18:36;6.00;78.40
41058;DHT22;66768;48.884;2.258;2023-02-28T13:21:05;6.00;78.70
41058;DHT22;66768;48.884;2.258;2023-02-28T13:23:42;6.10;78.90
41058;DHT22;66768;48.884;2.258;2023-02-28T13:29:31;6.00;77.10
41058;DHT22;66768;48.884;2.258;2023-02-28T13:32:30;6.00;77.20
41058;DHT22;66768;48.884;2.258;2023-02-28T13:40:55;6.10;76.80
41058;DHT22;66768;48.884;2.258;2023-02-28T13:44:03;6.10;77.00
41058;DHT22;66768;48.884;2.258;2023-02-28T13:46:32;6.10;76.50
41058;DHT22;66768;48.884;2.258;2023-02-28T13:49:19;6.10;75.40
41058;DHT22;66768;48.884;2.258;2023-02-28T13:51:47;6.10;75.90
41058;DHT22;66768;48.884;2.258;2023-02-28T13:54:33;6.20;76.80
41058;DHT22;66768;48.884;2.258;2023-02-28T13:57:12;6.30;77.20
41058;DHT22;66768;48.884;2.258;2023-02-28T13:59:49;6.20;77.00
41058;DHT22;66768;48.884;2.258;2023-02-28T14:02:35;6.10;75.80
41058;DHT22;66768;48.884;2.258;2023-02-28T14:05:15;6.20;74.90
41058;DHT22;66768;48.884;2.258;2023-02-28T14:07:46;6.20;74.70
41058;DHT22;66768;48.884;2.258;2023-02-28T14:10:24;6.10;74.40
41058;DHT22;66768;48.884;2.258;2023-02-28T14:13:10;6.30;74.60
41058;DHT22;66768;48.884;2.258;2023-02-28T14:15:44;6.10;74.70
41058;DHT22;66768;48.884;2.258;2023-02-28T14:18:25;6.20;74.90
41058;DHT22;66768;48.884;2.258;2023-02-28T14:20:59;6.20;75.00
41058;DHT22;66768;48.884;2.258;2023-02-28T14:23:39;6.40;75.60
41058;DHT22;66768;48.884;2.258;2023-02-28T14:26:19;6.10;75.60
41058;DHT22;66768;48.884;2.258;2023-02-28T14:29:02;6.20;75.70
41058;DHT22;66768;48.884;2.258;2023-02-28T14:31:34;6.20;75.50
41058;DHT22;66768;48.884;2.258;2023-02-28T14:34:17;6.20;75.80
41058;DHT22;66768;48.884;2.258;2023-02-28T14:36:53;6.30;75.10
41058;DHT22;66768;48.884;2.258;2023-02-28T14:39:22;6.20;74.30
41058;DHT22;66768;48.884;2.258;2023-02-28T14:41:49;6.20;74.20
41058;DHT22;66768;48.884;2.258;2023-02-28T14:44:18;6.20;73.40
41058;DHT22;66768;48.884;2.258;2023-02-28T14:46:48;6.10;73.20
41058;DHT22;66768;48.884;2.258;2023-02-28T14:49:27;6.20;73.60
41058;DHT22;66768;48.884;2.258;2023-02-28T14:52:06;6.30;73.50
41058;DHT22;66768;48.884;2.258;2023-02-28T14:54:35;6.30;73.20
41058;DHT22;66768;48.884;2.258;2023-02-28T14:57:03;6.30;73.30
41058;DHT22;66768;48.884;2.258;2023-02-28T14:59:31;6.40;73.50
41058;DHT22;66768;48.884;2.258;2023-02-28T15:02:20;6.50;73.70
41058;DHT22;66768;48.884;2.258;2023-02-28T15:04:55;6.40;72.40
41058;DHT22;66768;48.884;2.258;2023-02-28T15:07:24;6.40;72.50
41058;DHT22;66768;48.884;2.258;2023-02-28T15:10:15;6.50;71.90
41058;DHT22;66768;48.884;2.258;2023-02-28T15:12:49;6.30;71.80
41058;DHT22;66768;48.884;2.258;2023-02-28T15:15:18;6.30;72.00
41058;DHT22;66768;48.884;2.258;2023-02-28T15:17:49;6.30;72.00
41058;DHT22;66768;48.884;2.258;2023-02-28T15:20:17;6.30;72.20
41058;DHT22;66768;48.884;2.258;2023-02-28T15:22:47;6.30;72.00
41058;DHT22;66768;48.884;2.258;2023-02-28T15:25:20;6.30;72.00
41058;DHT22;66768;48.884;2.258;2023-02-28T15:27:50;6.30;72.00
41058;DHT22;66768;48.884;2.258;2023-02-28T15:30:20;6.40;72.50
41058;DHT22;66768;48.884;2.258;2023-02-28T15:33:07;6.40;72.30
41058;DHT22;66768;48.884;2.258;2023-02-28T15:35:37;6.40;72.70
41058;DHT22;66768;48.884;2.258;2023-02-28T15:38:15;6.40;72.80
41058;DHT22;66768;48.884;2.258;2023-02-28T15:40:43;6.60;73.00
41058;DHT22;66768;48.884;2.258;2023-02-28T15:43:15;6.50;73.30
41058;DHT22;66768;48.884;2.258;2023-02-28T15:45:46;6.50;73.20
41058;DHT22;66768;48.884;2.258;2023-02-28T15:48:17;6.50;73.50
41058;DHT22;66768;48.884;2.258;2023-02-28T15:50:48;6.50;73.70
41058;DHT22;66768;48.884;2.258;2023-02-28T15:53:19;6.40;74.00
41058;DHT22;66768;48.884;2.258;2023-02-28T15:55:53;6.40;74.10
41058;DHT22;66768;48.884;2.258;2023-02-28T15:58:22;6.40;73.80
41058;DHT22;66768;48.884;2.258;2023-02-28T16:03:45;6.30;73.20
41058;DHT22;66768;48.884;2.258;2023-02-28T16:06:38;6.30;73.50
41058;DHT22;66768;48.884;2.258;2023-02-28T16:09:10;6.30;73.40
41058;DHT22;66768;48.884;2.258;2023-02-28T16:11:41;6.30;73.10
41058;DHT22;66768;48.884;2.258;2023-02-28T16:14:13;6.30;73.60
41058;DHT22;66768;48.884;2.258;2023-02-28T16:16:45;6.30;73.50
41058;DHT22;66768;48.884;2.258;2023-02-28T16:19:13;6.30;73.40
41058;DHT22;66768;48.884;2.258;2023-02-28T16:21:40;6.30;73.20
41058;DHT22;66768;48.884;2.258;2023-02-28T16:24:08;6.30;72.80
41058;DHT22;66768;48.884;2.258;2023-02-28T16:26:36;6.20;72.80
41058;DHT22;66768;48.884;2.258;2023-02-28T16:29:05;6.30;72.80
41058;DHT22;66768;48.884;2.258;2023-02-28T16:31:35;6.30;72.70
41058;DHT22;66768;48.884;2.258;2023-02-28T16:34:04;6.20;72.50
41058;DHT22;66768;48.884;2.258;2023-02-28T16:36:31;6.10;72.70
41058;DHT22;66768;48.884;2.258;2023-02-28T16:38:58;6.30;73.00
41058;DHT22;66768;48.884;2.258;2023-02-28T16:41:27;6.20;72.90
41058;DHT22;66768;48.884;2.258;2023-02-28T16:43:56;6.20;73.60